Pacific, Missouri
Current Conditions -  °F | °C
As of 5:54 PM on Monday 22 Dec 2014 (Local Time) from KSUS Reporting Station
Haze Haze  
Wind Chill: 48°   Ceiling: 900
Heat Index: 48°   Visibility: 4mi
Dew Point: 47°   Wind: 0mph
Humidity: 96%   Direction: NA
Pressure: 29.52"   Gusts: NA
Location:  38.48°N, 90.74°W
Report Text: KSUS 222354Z 00000KT 4SM BR OVC009 09/08 A2952 RMK AO2 RAE10 CIG 008V012 SLP001 P0000 60017 T00890083 10089 20078 58008
Loading
Personal Weather Stations






























Interactive Weather Map New forecast layout! Learn more

10-Day Weather Forecast

Advertisements
Track Severe Weather on mobile